sensor_id;sensor_type;location;lat;lon;timestamp;P1;durP1;ratioP1;P2;durP2;ratioP2
65871;SDS011;52653;50.080;21.992;2024-03-06T00:00:36;40.60;;;25.10;;
65871;SDS011;52653;50.080;21.992;2024-03-06T00:03:28;37.90;;;23.50;;
65871;SDS011;52653;50.080;21.992;2024-03-06T00:06:01;38.00;;;23.10;;
65871;SDS011;52653;50.080;21.992;2024-03-06T00:08:34;37.40;;;23.30;;
65871;SDS011;52653;50.080;21.992;2024-03-06T00:11:06;35.30;;;21.90;;
65871;SDS011;52653;50.080;21.992;2024-03-06T00:13:39;36.60;;;22.20;;
65871;SDS011;52653;50.080;21.992;2024-03-06T00:16:11;35.60;;;22.50;;
65871;SDS011;52653;50.080;21.992;2024-03-06T00:18:47;36.80;;;22.20;;
65871;SDS011;52653;50.080;21.992;2024-03-06T00:21:19;33.70;;;22.40;;
65871;SDS011;52653;50.080;21.992;2024-03-06T00:23:51;35.80;;;22.10;;
65871;SDS011;52653;50.080;21.992;2024-03-06T00:26:24;35.00;;;23.00;;
65871;SDS011;52653;50.080;21.992;2024-03-06T00:28:57;36.70;;;22.50;;
65871;SDS011;52653;50.080;21.992;2024-03-06T00:31:29;34.30;;;21.80;;
65871;SDS011;52653;50.080;21.992;2024-03-06T00:34:01;33.90;;;22.20;;
65871;SDS011;52653;50.080;21.992;2024-03-06T00:36:34;36.70;;;23.10;;
65871;SDS011;52653;50.080;21.992;2024-03-06T00:39:06;32.00;;;20.90;;
65871;SDS011;52653;50.080;21.992;2024-03-06T00:41:38;37.40;;;23.10;;
65871;SDS011;52653;50.080;21.992;2024-03-06T00:44:11;34.90;;;22.80;;
65871;SDS011;52653;50.080;21.992;2024-03-06T00:46:44;33.90;;;22.70;;
65871;SDS011;52653;50.080;21.992;2024-03-06T00:49:16;34.00;;;21.90;;
65871;SDS011;52653;50.080;21.992;2024-03-06T00:51:48;37.10;;;23.90;;
65871;SDS011;52653;50.080;21.992;2024-03-06T00:54:20;34.60;;;22.70;;
65871;SDS011;52653;50.080;21.992;2024-03-06T00:56:53;36.90;;;23.60;;
65871;SDS011;52653;50.080;21.992;2024-03-06T00:59:26;37.90;;;23.60;;
65871;SDS011;52653;50.080;21.992;2024-03-06T01:01:58;38.20;;;23.70;;
65871;SDS011;52653;50.080;21.992;2024-03-06T01:04:31;39.40;;;23.80;;
65871;SDS011;52653;50.080;21.992;2024-03-06T01:07:03;35.60;;;24.60;;
65871;SDS011;52653;50.080;21.992;2024-03-06T01:09:35;36.80;;;22.50;;
65871;SDS011;52653;50.080;21.992;2024-03-06T01:12:07;39.50;;;23.80;;
65871;SDS011;52653;50.080;21.992;2024-03-06T01:14:40;42.00;;;24.70;;
65871;SDS011;52653;50.080;21.992;2024-03-06T01:17:13;41.40;;;25.00;;
65871;SDS011;52653;50.080;21.992;2024-03-06T01:19:45;40.10;;;24.20;;
65871;SDS011;52653;50.080;21.992;2024-03-06T01:22:18;42.10;;;24.90;;
65871;SDS011;52653;50.080;21.992;2024-03-06T01:24:50;43.00;;;25.60;;
65871;SDS011;52653;50.080;21.992;2024-03-06T01:27:22;44.20;;;27.40;;
65871;SDS011;52653;50.080;21.992;2024-03-06T01:29:54;41.80;;;25.10;;
65871;SDS011;52653;50.080;21.992;2024-03-06T01:32:26;44.60;;;25.80;;
65871;SDS011;52653;50.080;21.992;2024-03-06T01:34:59;46.60;;;27.00;;
65871;SDS011;52653;50.080;21.992;2024-03-06T01:37:31;43.30;;;26.20;;
65871;SDS011;52653;50.080;21.992;2024-03-06T01:40:04;50.10;;;25.80;;
65871;SDS011;52653;50.080;21.992;2024-03-06T01:42:38;44.90;;;25.10;;
65871;SDS011;52653;50.080;21.992;2024-03-06T01:45:10;47.50;;;26.80;;
65871;SDS011;52653;50.080;21.992;2024-03-06T01:47:42;44.00;;;23.90;;
65871;SDS011;52653;50.080;21.992;2024-03-06T01:50:16;46.90;;;26.60;;
65871;SDS011;52653;50.080;21.992;2024-03-06T01:52:49;49.20;;;26.80;;
65871;SDS011;52653;50.080;21.992;2024-03-06T01:55:22;50.20;;;28.60;;
65871;SDS011;52653;50.080;21.992;2024-03-06T01:57:55;55.50;;;28.20;;
65871;SDS011;52653;50.080;21.992;2024-03-06T02:00:28;51.90;;;28.80;;
65871;SDS011;52653;50.080;21.992;2024-03-06T02:03:00;47.80;;;27.80;;
65871;SDS011;52653;50.080;21.992;2024-03-06T02:05:33;47.30;;;27.90;;
65871;SDS011;52653;50.080;21.992;2024-03-06T02:08:06;52.90;;;27.80;;
65871;SDS011;52653;50.080;21.992;2024-03-06T02:10:39;50.70;;;27.60;;
65871;SDS011;52653;50.080;21.992;2024-03-06T02:13:13;49.50;;;27.50;;
65871;SDS011;52653;50.080;21.992;2024-03-06T02:15:45;53.80;;;29.70;;
65871;SDS011;52653;50.080;21.992;2024-03-06T02:18:18;53.50;;;28.90;;
65871;SDS011;52653;50.080;21.992;2024-03-06T02:20:50;53.60;;;28.80;;
65871;SDS011;52653;50.080;21.992;2024-03-06T02:23:23;59.30;;;30.60;;
65871;SDS011;52653;50.080;21.992;2024-03-06T02:25:55;54.90;;;30.00;;
65871;SDS011;52653;50.080;21.992;2024-03-06T02:28:27;54.50;;;29.30;;
65871;SDS011;52653;50.080;21.992;2024-03-06T02:30:59;53.70;;;29.10;;
65871;SDS011;52653;50.080;21.992;2024-03-06T02:33:33;58.70;;;30.20;;
65871;SDS011;52653;50.080;21.992;2024-03-06T02:36:05;54.60;;;27.30;;
65871;SDS011;52653;50.080;21.992;2024-03-06T02:38:38;58.40;;;28.80;;
65871;SDS011;52653;50.080;21.992;2024-03-06T02:41:10;60.20;;;28.70;;
65871;SDS011;52653;50.080;21.992;2024-03-06T02:43:45;56.80;;;28.30;;
65871;SDS011;52653;50.080;21.992;2024-03-06T02:46:17;56.20;;;27.40;;
65871;SDS011;52653;50.080;21.992;2024-03-06T02:48:49;55.30;;;27.10;;
65871;SDS011;52653;50.080;21.992;2024-03-06T02:51:21;55.90;;;26.60;;
65871;SDS011;52653;50.080;21.992;2024-03-06T02:53:53;56.40;;;28.20;;
65871;SDS011;52653;50.080;21.992;2024-03-06T02:56:26;59.10;;;28.10;;
65871;SDS011;52653;50.080;21.992;2024-03-06T02:58:58;57.10;;;29.00;;
65871;SDS011;52653;50.080;21.992;2024-03-06T03:01:32;56.70;;;26.90;;
65871;SDS011;52653;50.080;21.992;2024-03-06T03:04:04;59.70;;;28.00;;
65871;SDS011;52653;50.080;21.992;2024-03-06T03:06:37;62.00;;;29.20;;
65871;SDS011;52653;50.080;21.992;2024-03-06T03:09:09;57.40;;;29.40;;
65871;SDS011;52653;50.080;21.992;2024-03-06T03:11:43;58.40;;;28.50;;
65871;SDS011;52653;50.080;21.992;2024-03-06T03:14:15;53.00;;;27.10;;
65871;SDS011;52653;50.080;21.992;2024-03-06T03:16:48;63.60;;;28.80;;
65871;SDS011;52653;50.080;21.992;2024-03-06T03:19:20;62.50;;;30.40;;
65871;SDS011;52653;50.080;21.992;2024-03-06T03:21:52;61.50;;;28.20;;
65871;SDS011;52653;50.080;21.992;2024-03-06T03:24:24;61.30;;;29.80;;
65871;SDS011;52653;50.080;21.992;2024-03-06T03:26:57;56.00;;;28.30;;
65871;SDS011;52653;50.080;21.992;2024-03-06T03:29:30;55.70;;;27.50;;
65871;SDS011;52653;50.080;21.992;2024-03-06T03:32:02;59.10;;;28.40;;
65871;SDS011;52653;50.080;21.992;2024-03-06T03:34:35;61.00;;;29.10;;
65871;SDS011;52653;50.080;21.992;2024-03-06T03:37:08;59.30;;;29.60;;
65871;SDS011;52653;50.080;21.992;2024-03-06T03:39:41;54.80;;;27.70;;
65871;SDS011;52653;50.080;21.992;2024-03-06T03:42:15;53.40;;;26.60;;
65871;SDS011;52653;50.080;21.992;2024-03-06T03:44:48;59.30;;;28.30;;
65871;SDS011;52653;50.080;21.992;2024-03-06T03:47:20;57.60;;;28.00;;
65871;SDS011;52653;50.080;21.992;2024-03-06T03:49:53;53.10;;;28.60;;
65871;SDS011;52653;50.080;21.992;2024-03-06T03:52:38;53.40;;;27.60;;
65871;SDS011;52653;50.080;21.992;2024-03-06T03:55:11;55.10;;;27.60;;
65871;SDS011;52653;50.080;21.992;2024-03-06T03:57:45;58.50;;;26.60;;
65871;SDS011;52653;50.080;21.992;2024-03-06T04:00:17;56.90;;;28.00;;
65871;SDS011;52653;50.080;21.992;2024-03-06T04:02:51;49.70;;;26.00;;
65871;SDS011;52653;50.080;21.992;2024-03-06T04:05:24;55.30;;;27.10;;
65871;SDS011;52653;50.080;21.992;2024-03-06T04:07:56;60.10;;;27.70;;
65871;SDS011;52653;50.080;21.992;2024-03-06T04:10:28;52.50;;;26.60;;
65871;SDS011;52653;50.080;21.992;2024-03-06T04:13:01;57.30;;;28.30;;
65871;SDS011;52653;50.080;21.992;2024-03-06T04:15:33;53.90;;;27.30;;
65871;SDS011;52653;50.080;21.992;2024-03-06T04:18:05;59.10;;;28.70;;
65871;SDS011;52653;50.080;21.992;2024-03-06T04:20:37;54.00;;;26.10;;
65871;SDS011;52653;50.080;21.992;2024-03-06T04:23:09;59.10;;;28.80;;
65871;SDS011;52653;50.080;21.992;2024-03-06T04:25:41;54.20;;;25.20;;
65871;SDS011;52653;50.080;21.992;2024-03-06T04:28:14;54.20;;;27.00;;
65871;SDS011;52653;50.080;21.992;2024-03-06T04:30:46;52.70;;;26.20;;
65871;SDS011;52653;50.080;21.992;2024-03-06T04:33:18;57.00;;;27.70;;
65871;SDS011;52653;50.080;21.992;2024-03-06T04:35:50;55.40;;;27.40;;
65871;SDS011;52653;50.080;21.992;2024-03-06T04:38:23;50.00;;;24.90;;
65871;SDS011;52653;50.080;21.992;2024-03-06T04:40:55;53.30;;;25.80;;
65871;SDS011;52653;50.080;21.992;2024-03-06T04:43:27;54.40;;;26.10;;
65871;SDS011;52653;50.080;21.992;2024-03-06T04:46:00;53.30;;;27.10;;
65871;SDS011;52653;50.080;21.992;2024-03-06T04:48:32;54.20;;;27.00;;
65871;SDS011;52653;50.080;21.992;2024-03-06T04:51:05;58.00;;;26.70;;
65871;SDS011;52653;50.080;21.992;2024-03-06T04:53:39;50.70;;;25.20;;
65871;SDS011;52653;50.080;21.992;2024-03-06T04:56:11;45.80;;;24.60;;
65871;SDS011;52653;50.080;21.992;2024-03-06T04:58:43;51.20;;;24.70;;
65871;SDS011;52653;50.080;21.992;2024-03-06T05:01:16;52.50;;;26.40;;
65871;SDS011;52653;50.080;21.992;2024-03-06T05:03:48;47.30;;;24.10;;
65871;SDS011;52653;50.080;21.992;2024-03-06T05:06:38;47.40;;;24.20;;
65871;SDS011;52653;50.080;21.992;2024-03-06T05:09:28;46.20;;;25.00;;
65871;SDS011;52653;50.080;21.992;2024-03-06T05:12:17;45.00;;;24.10;;
65871;SDS011;52653;50.080;21.992;2024-03-06T05:15:07;41.10;;;22.60;;
65871;SDS011;52653;50.080;21.992;2024-03-06T05:17:57;44.20;;;23.60;;
65871;SDS011;52653;50.080;21.992;2024-03-06T05:20:47;45.20;;;23.30;;
65871;SDS011;52653;50.080;21.992;2024-03-06T05:23:36;44.60;;;23.50;;
65871;SDS011;52653;50.080;21.992;2024-03-06T05:26:25;44.30;;;23.70;;
65871;SDS011;52653;50.080;21.992;2024-03-06T05:29:15;40.50;;;22.30;;
65871;SDS011;52653;50.080;21.992;2024-03-06T05:32:04;43.80;;;23.40;;
65871;SDS011;52653;50.080;21.992;2024-03-06T05:34:54;43.70;;;23.00;;
65871;SDS011;52653;50.080;21.992;2024-03-06T05:37:45;45.90;;;22.80;;
65871;SDS011;52653;50.080;21.992;2024-03-06T05:40:34;41.90;;;21.70;;
65871;SDS011;52653;50.080;21.992;2024-03-06T05:43:26;42.60;;;21.90;;
65871;SDS011;52653;50.080;21.992;2024-03-06T05:46:16;41.10;;;21.30;;
65871;SDS011;52653;50.080;21.992;2024-03-06T05:49:06;42.40;;;22.10;;
65871;SDS011;52653;50.080;21.992;2024-03-06T05:51:56;43.10;;;22.90;;
65871;SDS011;52653;50.080;21.992;2024-03-06T05:54:45;41.30;;;23.00;;
65871;SDS011;52653;50.080;21.992;2024-03-06T05:57:35;43.80;;;22.30;;
65871;SDS011;52653;50.080;21.992;2024-03-06T06:00:25;42.30;;;22.30;;
65871;SDS011;52653;50.080;21.992;2024-03-06T06:02:57;39.90;;;21.80;;
65871;SDS011;52653;50.080;21.992;2024-03-06T06:05:30;41.60;;;22.80;;
65871;SDS011;52653;50.080;21.992;2024-03-06T06:08:02;39.60;;;21.10;;
65871;SDS011;52653;50.080;21.992;2024-03-06T06:10:35;39.40;;;22.40;;
65871;SDS011;52653;50.080;21.992;2024-03-06T06:13:07;41.60;;;23.30;;
65871;SDS011;52653;50.080;21.992;2024-03-06T06:15:39;41.30;;;22.80;;
65871;SDS011;52653;50.080;21.992;2024-03-06T06:18:11;49.50;;;27.10;;
65871;SDS011;52653;50.080;21.992;2024-03-06T06:20:44;47.30;;;25.90;;
65871;SDS011;52653;50.080;21.992;2024-03-06T06:23:16;48.60;;;26.70;;
65871;SDS011;52653;50.080;21.992;2024-03-06T06:25:48;47.70;;;26.00;;
65871;SDS011;52653;50.080;21.992;2024-03-06T06:28:21;47.50;;;26.80;;
65871;SDS011;52653;50.080;21.992;2024-03-06T06:30:53;45.80;;;25.80;;
65871;SDS011;52653;50.080;21.992;2024-03-06T06:33:25;44.00;;;25.70;;
65871;SDS011;52653;50.080;21.992;2024-03-06T06:35:58;45.40;;;26.50;;
65871;SDS011;52653;50.080;21.992;2024-03-06T06:38:30;43.60;;;25.50;;
65871;SDS011;52653;50.080;21.992;2024-03-06T06:41:02;46.30;;;26.40;;
65871;SDS011;52653;50.080;21.992;2024-03-06T06:43:36;43.60;;;26.60;;
65871;SDS011;52653;50.080;21.992;2024-03-06T06:46:08;42.30;;;25.10;;
65871;SDS011;52653;50.080;21.992;2024-03-06T06:48:41;44.90;;;24.60;;
65871;SDS011;52653;50.080;21.992;2024-03-06T06:51:13;44.80;;;25.50;;
65871;SDS011;52653;50.080;21.992;2024-03-06T06:53:45;48.70;;;27.20;;
65871;SDS011;52653;50.080;21.992;2024-03-06T06:56:17;44.10;;;25.40;;
65871;SDS011;52653;50.080;21.992;2024-03-06T06:58:53;43.40;;;27.50;;
65871;SDS011;52653;50.080;21.992;2024-03-06T07:01:25;39.90;;;25.10;;
65871;SDS011;52653;50.080;21.992;2024-03-06T07:03:58;45.40;;;25.80;;
65871;SDS011;52653;50.080;21.992;2024-03-06T07:06:31;44.20;;;26.50;;
65871;SDS011;52653;50.080;21.992;2024-03-06T07:09:03;40.50;;;24.00;;
65871;SDS011;52653;50.080;21.992;2024-03-06T07:11:38;42.90;;;25.30;;
65871;SDS011;52653;50.080;21.992;2024-03-06T07:14:11;40.60;;;23.10;;
65871;SDS011;52653;50.080;21.992;2024-03-06T07:16:44;40.40;;;22.60;;
65871;SDS011;52653;50.080;21.992;2024-03-06T07:19:16;41.70;;;23.50;;
65871;SDS011;52653;50.080;21.992;2024-03-06T07:21:49;39.30;;;22.00;;
65871;SDS011;52653;50.080;21.992;2024-03-06T07:24:22;40.60;;;23.30;;
65871;SDS011;52653;50.080;21.992;2024-03-06T07:26:55;35.60;;;21.30;;
65871;SDS011;52653;50.080;21.992;2024-03-06T07:29:27;36.40;;;20.80;;
65871;SDS011;52653;50.080;21.992;2024-03-06T07:31:59;36.90;;;21.70;;
65871;SDS011;52653;50.080;21.992;2024-03-06T07:34:31;37.30;;;22.10;;
65871;SDS011;52653;50.080;21.992;2024-03-06T07:37:04;36.10;;;21.60;;
65871;SDS011;52653;50.080;21.992;2024-03-06T07:39:36;35.30;;;21.80;;
65871;SDS011;52653;50.080;21.992;2024-03-06T07:42:08;44.20;;;26.70;;
65871;SDS011;52653;50.080;21.992;2024-03-06T07:44:42;40.40;;;26.20;;
65871;SDS011;52653;50.080;21.992;2024-03-06T07:47:14;42.60;;;24.80;;
65871;SDS011;52653;50.080;21.992;2024-03-06T07:49:46;55.70;;;31.90;;
65871;SDS011;52653;50.080;21.992;2024-03-06T07:52:19;66.60;;;39.30;;
65871;SDS011;52653;50.080;21.992;2024-03-06T07:54:50;63.00;;;38.60;;
65871;SDS011;52653;50.080;21.992;2024-03-06T07:57:22;49.00;;;27.30;;
65871;SDS011;52653;50.080;21.992;2024-03-06T07:59:53;46.10;;;28.80;;
65871;SDS011;52653;50.080;21.992;2024-03-06T08:02:25;59.40;;;34.30;;
65871;SDS011;52653;50.080;21.992;2024-03-06T08:04:56;61.70;;;36.30;;
65871;SDS011;52653;50.080;21.992;2024-03-06T08:07:27;61.40;;;36.00;;
65871;SDS011;52653;50.080;21.992;2024-03-06T08:09:59;62.60;;;34.50;;
65871;SDS011;52653;50.080;21.992;2024-03-06T08:12:31;74.70;;;42.50;;
65871;SDS011;52653;50.080;21.992;2024-03-06T08:15:03;59.60;;;33.40;;
65871;SDS011;52653;50.080;21.992;2024-03-06T08:17:38;76.70;;;43.50;;
65871;SDS011;52653;50.080;21.992;2024-03-06T08:20:12;64.50;;;39.70;;
65871;SDS011;52653;50.080;21.992;2024-03-06T08:22:43;46.80;;;28.10;;
65871;SDS011;52653;50.080;21.992;2024-03-06T08:25:14;38.70;;;23.10;;
65871;SDS011;52653;50.080;21.992;2024-03-06T08:27:46;37.70;;;20.90;;
65871;SDS011;52653;50.080;21.992;2024-03-06T08:30:17;40.60;;;23.00;;
65871;SDS011;52653;50.080;21.992;2024-03-06T08:32:48;38.80;;;21.20;;
65871;SDS011;52653;50.080;21.992;2024-03-06T08:35:20;39.50;;;23.00;;
65871;SDS011;52653;50.080;21.992;2024-03-06T08:37:52;41.10;;;23.10;;
65871;SDS011;52653;50.080;21.992;2024-03-06T08:40:23;45.80;;;25.00;;
65871;SDS011;52653;50.080;21.992;2024-03-06T08:42:56;42.90;;;24.10;;
65871;SDS011;52653;50.080;21.992;2024-03-06T08:45:27;40.20;;;24.40;;
65871;SDS011;52653;50.080;21.992;2024-03-06T08:47:58;42.70;;;24.80;;
65871;SDS011;52653;50.080;21.992;2024-03-06T08:50:29;40.80;;;21.60;;
65871;SDS011;52653;50.080;21.992;2024-03-06T08:53:01;38.60;;;23.10;;
65871;SDS011;52653;50.080;21.992;2024-03-06T08:55:32;40.30;;;23.30;;
65871;SDS011;52653;50.080;21.992;2024-03-06T08:58:03;41.40;;;22.10;;
65871;SDS011;52653;50.080;21.992;2024-03-06T09:00:35;39.80;;;22.40;;
65871;SDS011;52653;50.080;21.992;2024-03-06T09:03:06;41.10;;;25.40;;
65871;SDS011;52653;50.080;21.992;2024-03-06T09:05:38;41.80;;;23.80;;
65871;SDS011;52653;50.080;21.992;2024-03-06T09:08:09;40.10;;;22.50;;
65871;SDS011;52653;50.080;21.992;2024-03-06T09:10:40;36.10;;;20.50;;
65871;SDS011;52653;50.080;21.992;2024-03-06T09:13:12;33.90;;;19.80;;
65871;SDS011;52653;50.080;21.992;2024-03-06T09:15:43;39.00;;;21.70;;
65871;SDS011;52653;50.080;21.992;2024-03-06T09:18:14;32.10;;;19.10;;
65871;SDS011;52653;50.080;21.992;2024-03-06T09:20:46;34.90;;;20.80;;
65871;SDS011;52653;50.080;21.992;2024-03-06T09:23:17;37.30;;;20.20;;
65871;SDS011;52653;50.080;21.992;2024-03-06T09:25:49;32.60;;;21.10;;
65871;SDS011;52653;50.080;21.992;2024-03-06T09:28:22;35.50;;;21.70;;
65871;SDS011;52653;50.080;21.992;2024-03-06T09:30:53;35.40;;;19.60;;
65871;SDS011;52653;50.080;21.992;2024-03-06T09:33:25;29.50;;;18.30;;
65871;SDS011;52653;50.080;21.992;2024-03-06T09:35:56;30.10;;;18.00;;
65871;SDS011;52653;50.080;21.992;2024-03-06T09:38:27;30.50;;;17.00;;
65871;SDS011;52653;50.080;21.992;2024-03-06T09:40:59;29.30;;;17.50;;
65871;SDS011;52653;50.080;21.992;2024-03-06T09:43:30;28.30;;;17.60;;
65871;SDS011;52653;50.080;21.992;2024-03-06T09:46:01;33.70;;;19.60;;
65871;SDS011;52653;50.080;21.992;2024-03-06T09:48:33;31.50;;;17.90;;
65871;SDS011;52653;50.080;21.992;2024-03-06T09:51:07;30.90;;;17.30;;
65871;SDS011;52653;50.080;21.992;2024-03-06T09:53:40;28.40;;;17.70;;
65871;SDS011;52653;50.080;21.992;2024-03-06T09:56:12;33.70;;;17.90;;
65871;SDS011;52653;50.080;21.992;2024-03-06T09:58:44;33.00;;;19.10;;
65871;SDS011;52653;50.080;21.992;2024-03-06T10:01:15;32.30;;;18.60;;
65871;SDS011;52653;50.080;21.992;2024-03-06T10:03:48;34.30;;;20.00;;
65871;SDS011;52653;50.080;21.992;2024-03-06T10:06:19;35.00;;;21.20;;
65871;SDS011;52653;50.080;21.992;2024-03-06T10:08:51;37.40;;;20.50;;
65871;SDS011;52653;50.080;21.992;2024-03-06T10:11:22;38.90;;;22.40;;
65871;SDS011;52653;50.080;21.992;2024-03-06T10:13:53;39.50;;;22.30;;
65871;SDS011;52653;50.080;21.992;2024-03-06T10:16:25;37.10;;;21.30;;
65871;SDS011;52653;50.080;21.992;2024-03-06T10:18:56;37.60;;;22.00;;
65871;SDS011;52653;50.080;21.992;2024-03-06T10:21:46;35.20;;;21.70;;
65871;SDS011;52653;50.080;21.992;2024-03-06T10:24:20;39.60;;;22.00;;
65871;SDS011;52653;50.080;21.992;2024-03-06T10:26:54;40.60;;;22.70;;
65871;SDS011;52653;50.080;21.992;2024-03-06T10:29:28;36.50;;;22.00;;
65871;SDS011;52653;50.080;21.992;2024-03-06T10:31:59;38.60;;;23.10;;
65871;SDS011;52653;50.080;21.992;2024-03-06T10:34:30;36.90;;;22.00;;
65871;SDS011;52653;50.080;21.992;2024-03-06T10:37:02;38.90;;;22.20;;
65871;SDS011;52653;50.080;21.992;2024-03-06T10:39:34;37.80;;;22.80;;
65871;SDS011;52653;50.080;21.992;2024-03-06T10:42:13;39.20;;;22.60;;
65871;SDS011;52653;50.080;21.992;2024-03-06T10:44:48;37.70;;;22.40;;
65871;SDS011;52653;50.080;21.992;2024-03-06T10:47:21;37.40;;;23.00;;
65871;SDS011;52653;50.080;21.992;2024-03-06T10:49:55;37.30;;;23.90;;
65871;SDS011;52653;50.080;21.992;2024-03-06T10:52:33;36.20;;;22.50;;
65871;SDS011;52653;50.080;21.992;2024-03-06T10:55:05;35.40;;;21.30;;
65871;SDS011;52653;50.080;21.992;2024-03-06T10:57:38;35.20;;;21.40;;
65871;SDS011;52653;50.080;21.992;2024-03-06T11:00:12;31.50;;;20.00;;
65871;SDS011;52653;50.080;21.992;2024-03-06T11:02:47;28.90;;;19.20;;
65871;SDS011;52653;50.080;21.992;2024-03-06T11:05:20;28.20;;;18.70;;
65871;SDS011;52653;50.080;21.992;2024-03-06T11:07:52;27.80;;;18.40;;
65871;SDS011;52653;50.080;21.992;2024-03-06T11:10:33;28.60;;;18.50;;
65871;SDS011;52653;50.080;21.992;2024-03-06T11:13:10;27.10;;;18.00;;
65871;SDS011;52653;50.080;21.992;2024-03-06T11:15:53;28.00;;;18.00;;
65871;SDS011;52653;50.080;21.992;2024-03-06T11:18:42;28.70;;;18.40;;
65871;SDS011;52653;50.080;21.992;2024-03-06T11:21:29;27.10;;;18.10;;
65871;SDS011;52653;50.080;21.992;2024-03-06T11:24:13;26.70;;;16.70;;
65871;SDS011;52653;50.080;21.992;2024-03-06T11:26:59;27.00;;;19.40;;
65871;SDS011;52653;50.080;21.992;2024-03-06T11:32:56;30.80;;;20.50;;
65871;SDS011;52653;50.080;21.992;2024-03-06T11:35:29;31.60;;;19.50;;
65871;SDS011;52653;50.080;21.992;2024-03-06T11:38:01;27.90;;;20.00;;
65871;SDS011;52653;50.080;21.992;2024-03-06T11:40:42;30.40;;;21.30;;
65871;SDS011;52653;50.080;21.992;2024-03-06T11:43:26;31.30;;;20.60;;
65871;SDS011;52653;50.080;21.992;2024-03-06T11:46:08;28.60;;;20.40;;
65871;SDS011;52653;50.080;21.992;2024-03-06T11:48:40;30.00;;;21.10;;
65871;SDS011;52653;50.080;21.992;2024-03-06T11:51:11;31.30;;;20.70;;
65871;SDS011;52653;50.080;21.992;2024-03-06T11:53:42;29.70;;;21.30;;
65871;SDS011;52653;50.080;21.992;2024-03-06T11:56:14;30.20;;;21.70;;
65871;SDS011;52653;50.080;21.992;2024-03-06T11:58:46;32.80;;;21.40;;
65871;SDS011;52653;50.080;21.992;2024-03-06T12:01:17;32.40;;;21.30;;
65871;SDS011;52653;50.080;21.992;2024-03-06T12:03:49;31.90;;;22.00;;
65871;SDS011;52653;50.080;21.992;2024-03-06T12:06:21;31.40;;;21.00;;
65871;SDS011;52653;50.080;21.992;2024-03-06T12:08:52;27.90;;;19.60;;
65871;SDS011;52653;50.080;21.992;2024-03-06T12:11:24;28.70;;;20.70;;
65871;SDS011;52653;50.080;21.992;2024-03-06T12:13:56;25.50;;;19.20;;
65871;SDS011;52653;50.080;21.992;2024-03-06T12:16:29;26.10;;;18.20;;
65871;SDS011;52653;50.080;21.992;2024-03-06T12:19:00;23.90;;;18.30;;
65871;SDS011;52653;50.080;21.992;2024-03-06T12:21:32;27.60;;;19.60;;
65871;SDS011;52653;50.080;21.992;2024-03-06T12:24:04;27.10;;;19.70;;
65871;SDS011;52653;50.080;21.992;2024-03-06T12:26:36;28.50;;;20.10;;
65871;SDS011;52653;50.080;21.992;2024-03-06T12:29:08;26.60;;;19.80;;
65871;SDS011;52653;50.080;21.992;2024-03-06T12:31:41;24.70;;;18.90;;
65871;SDS011;52653;50.080;21.992;2024-03-06T12:34:16;27.00;;;19.70;;
65871;SDS011;52653;50.080;21.992;2024-03-06T12:36:47;25.40;;;19.70;;
65871;SDS011;52653;50.080;21.992;2024-03-06T12:39:19;27.50;;;20.50;;
65871;SDS011;52653;50.080;21.992;2024-03-06T12:41:51;25.90;;;19.50;;
65871;SDS011;52653;50.080;21.992;2024-03-06T12:44:23;27.60;;;20.00;;
65871;SDS011;52653;50.080;21.992;2024-03-06T12:46:55;29.20;;;20.70;;
65871;SDS011;52653;50.080;21.992;2024-03-06T12:49:26;26.20;;;20.10;;
65871;SDS011;52653;50.080;21.992;2024-03-06T12:51:57;27.70;;;21.20;;
65871;SDS011;52653;50.080;21.992;2024-03-06T12:54:32;28.20;;;20.90;;
65871;SDS011;52653;50.080;21.992;2024-03-06T12:57:03;29.40;;;21.30;;
65871;SDS011;52653;50.080;21.992;2024-03-06T12:59:40;30.60;;;22.30;;
65871;SDS011;52653;50.080;21.992;2024-03-06T13:02:12;31.00;;;21.20;;
65871;SDS011;52653;50.080;21.992;2024-03-06T13:04:46;29.70;;;21.80;;
65871;SDS011;52653;50.080;21.992;2024-03-06T13:07:17;29.10;;;22.80;;
65871;SDS011;52653;50.080;21.992;2024-03-06T13:09:48;33.00;;;22.60;;
65871;SDS011;52653;50.080;21.992;2024-03-06T13:12:19;32.50;;;24.00;;
65871;SDS011;52653;50.080;21.992;2024-03-06T13:14:50;31.10;;;22.70;;
65871;SDS011;52653;50.080;21.992;2024-03-06T13:17:22;28.80;;;23.80;;
65871;SDS011;52653;50.080;21.992;2024-03-06T13:19:53;32.90;;;25.00;;
65871;SDS011;52653;50.080;21.992;2024-03-06T13:22:25;35.50;;;26.30;;
65871;SDS011;52653;50.080;21.992;2024-03-06T13:24:56;33.50;;;26.10;;
65871;SDS011;52653;50.080;21.992;2024-03-06T13:27:27;33.80;;;25.30;;
65871;SDS011;52653;50.080;21.992;2024-03-06T13:29:58;35.10;;;26.50;;
65871;SDS011;52653;50.080;21.992;2024-03-06T13:32:33;36.40;;;27.30;;
65871;SDS011;52653;50.080;21.992;2024-03-06T13:35:05;35.00;;;26.50;;
65871;SDS011;52653;50.080;21.992;2024-03-06T13:37:40;36.50;;;27.50;;
65871;SDS011;52653;50.080;21.992;2024-03-06T13:40:12;39.20;;;27.10;;
65871;SDS011;52653;50.080;21.992;2024-03-06T13:42:45;38.20;;;29.60;;
65871;SDS011;52653;50.080;21.992;2024-03-06T13:45:16;41.10;;;29.60;;
65871;SDS011;52653;50.080;21.992;2024-03-06T13:47:50;40.70;;;31.90;;
65871;SDS011;52653;50.080;21.992;2024-03-06T13:50:21;43.10;;;32.90;;
65871;SDS011;52653;50.080;21.992;2024-03-06T13:52:54;45.20;;;34.30;;
65871;SDS011;52653;50.080;21.992;2024-03-06T13:55:26;50.30;;;37.10;;
65871;SDS011;52653;50.080;21.992;2024-03-06T13:58:01;53.80;;;38.80;;
65871;SDS011;52653;50.080;21.992;2024-03-06T14:00:32;56.20;;;36.50;;
65871;SDS011;52653;50.080;21.992;2024-03-06T14:03:04;50.70;;;36.00;;
65871;SDS011;52653;50.080;21.992;2024-03-06T14:05:35;55.50;;;38.50;;
65871;SDS011;52653;50.080;21.992;2024-03-06T14:08:08;54.30;;;37.40;;
65871;SDS011;52653;50.080;21.992;2024-03-06T14:10:40;48.50;;;33.60;;
65871;SDS011;52653;50.080;21.992;2024-03-06T14:13:14;51.20;;;33.10;;
65871;SDS011;52653;50.080;21.992;2024-03-06T14:15:45;48.50;;;34.10;;
65871;SDS011;52653;50.080;21.992;2024-03-06T14:18:18;46.00;;;33.10;;
65871;SDS011;52653;50.080;21.992;2024-03-06T14:20:50;52.30;;;33.70;;
65871;SDS011;52653;50.080;21.992;2024-03-06T14:23:21;49.10;;;33.90;;
65871;SDS011;52653;50.080;21.992;2024-03-06T14:25:52;49.60;;;32.40;;
65871;SDS011;52653;50.080;21.992;2024-03-06T14:28:24;45.20;;;31.20;;
65871;SDS011;52653;50.080;21.992;2024-03-06T14:30:56;50.10;;;33.40;;
65871;SDS011;52653;50.080;21.992;2024-03-06T14:33:28;50.50;;;33.80;;
65871;SDS011;52653;50.080;21.992;2024-03-06T14:35:59;44.30;;;30.80;;
65871;SDS011;52653;50.080;21.992;2024-03-06T14:38:31;36.30;;;26.20;;
65871;SDS011;52653;50.080;21.992;2024-03-06T14:41:03;36.50;;;26.70;;
65871;SDS011;52653;50.080;21.992;2024-03-06T14:43:35;37.00;;;27.60;;
65871;SDS011;52653;50.080;21.992;2024-03-06T14:46:07;32.20;;;24.50;;
65871;SDS011;52653;50.080;21.992;2024-03-06T14:48:38;31.50;;;24.40;;